sensor_id;sensor_type;location;lat;lon;timestamp;temperature;humidity
2212;DHT22;48849;48.758;9.158;2023-02-07T00:00:21;5.70;99.90
2212;DHT22;48849;48.758;9.158;2023-02-07T00:02:50;5.70;99.90
2212;DHT22;48849;48.758;9.158;2023-02-07T00:05:19;5.70;99.90
2212;DHT22;48849;48.758;9.158;2023-02-07T00:07:46;5.70;99.90
2212;DHT22;48849;48.758;9.158;2023-02-07T00:10:13;5.70;99.90
2212;DHT22;48849;48.758;9.158;2023-02-07T00:12:40;5.70;99.90
2212;DHT22;48849;48.758;9.158;2023-02-07T00:15:07;5.60;99.90
2212;DHT22;48849;48.758;9.158;2023-02-07T00:17:34;5.60;99.90
2212;DHT22;48849;48.758;9.158;2023-02-07T00:20:03;5.60;99.90
2212;DHT22;48849;48.758;9.158;2023-02-07T00:22:30;5.60;99.90
2212;DHT22;48849;48.758;9.158;2023-02-07T00:24:57;5.50;99.90
2212;DHT22;48849;48.758;9.158;2023-02-07T00:27:24;5.50;99.90
2212;DHT22;48849;48.758;9.158;2023-02-07T00:29:50;5.40;99.90
2212;DHT22;48849;48.758;9.158;2023-02-07T00:32:17;5.40;99.90
2212;DHT22;48849;48.758;9.158;2023-02-07T00:34:45;5.30;99.90
2212;DHT22;48849;48.758;9.158;2023-02-07T00:37:13;5.30;99.90
2212;DHT22;48849;48.758;9.158;2023-02-07T00:39:40;5.20;99.90
2212;DHT22;48849;48.758;9.158;2023-02-07T00:42:06;5.20;99.90
2212;DHT22;48849;48.758;9.158;2023-02-07T00:44:33;5.20;99.90
2212;DHT22;48849;48.758;9.158;2023-02-07T00:47:00;5.20;99.90
2212;DHT22;48849;48.758;9.158;2023-02-07T00:49:26;5.10;99.90
2212;DHT22;48849;48.758;9.158;2023-02-07T00:51:53;5.10;99.90
2212;DHT22;48849;48.758;9.158;2023-02-07T00:54:21;5.10;99.90
2212;DHT22;48849;48.758;9.158;2023-02-07T00:56:48;5.10;99.90
2212;DHT22;48849;48.758;9.158;2023-02-07T00:59:14;5.00;99.90
2212;DHT22;48849;48.758;9.158;2023-02-07T01:01:41;5.00;99.90
2212;DHT22;48849;48.758;9.158;2023-02-07T01:04:08;5.00;99.90
2212;DHT22;48849;48.758;9.158;2023-02-07T01:06:34;5.00;99.90
2212;DHT22;48849;48.758;9.158;2023-02-07T01:09:03;5.00;99.90
2212;DHT22;48849;48.758;9.158;2023-02-07T01:11:32;5.00;99.90
2212;DHT22;48849;48.758;9.158;2023-02-07T01:13:59;4.90;99.90
2212;DHT22;48849;48.758;9.158;2023-02-07T01:16:28;4.90;99.90
2212;DHT22;48849;48.758;9.158;2023-02-07T01:18:55;4.90;99.90
2212;DHT22;48849;48.758;9.158;2023-02-07T01:21:24;4.90;99.90
2212;DHT22;48849;48.758;9.158;2023-02-07T01:23:52;4.90;99.90
2212;DHT22;48849;48.758;9.158;2023-02-07T01:26:21;4.90;99.90
2212;DHT22;48849;48.758;9.158;2023-02-07T01:28:49;4.90;99.90
2212;DHT22;48849;48.758;9.158;2023-02-07T01:31:16;4.90;99.90
2212;DHT22;48849;48.758;9.158;2023-02-07T01:33:43;4.90;99.90
2212;DHT22;48849;48.758;9.158;2023-02-07T01:36:11;4.80;99.90
2212;DHT22;48849;48.758;9.158;2023-02-07T01:38:38;4.80;99.90
2212;DHT22;48849;48.758;9.158;2023-02-07T01:41:05;4.80;99.90
2212;DHT22;48849;48.758;9.158;2023-02-07T01:43:32;4.80;99.90
2212;DHT22;48849;48.758;9.158;2023-02-07T01:46:00;4.70;99.90
2212;DHT22;48849;48.758;9.158;2023-02-07T01:48:29;4.80;99.90
2212;DHT22;48849;48.758;9.158;2023-02-07T01:50:59;4.70;99.90
2212;DHT22;48849;48.758;9.158;2023-02-07T01:53:29;6.30;99.90
2212;DHT22;48849;48.758;9.158;2023-02-07T01:56:00;4.70;99.90
2212;DHT22;48849;48.758;9.158;2023-02-07T01:58:29;4.70;99.90
2212;DHT22;48849;48.758;9.158;2023-02-07T02:00:57;4.60;99.90
2212;DHT22;48849;48.758;9.158;2023-02-07T02:03:26;4.60;99.90
2212;DHT22;48849;48.758;9.158;2023-02-07T02:05:52;4.60;99.90
2212;DHT22;48849;48.758;9.158;2023-02-07T02:08:20;4.60;99.90
2212;DHT22;48849;48.758;9.158;2023-02-07T02:10:56;4.60;99.90
2212;DHT22;48849;48.758;9.158;2023-02-07T02:13:31;4.70;99.90
2212;DHT22;48849;48.758;9.158;2023-02-07T02:16:06;4.70;99.90
2212;DHT22;48849;48.758;9.158;2023-02-07T02:18:59;4.70;99.90
2212;DHT22;48849;48.758;9.158;2023-02-07T02:22:10;4.70;99.90
2212;DHT22;48849;48.758;9.158;2023-02-07T02:25:04;4.70;99.90
2212;DHT22;48849;48.758;9.158;2023-02-07T02:28:00;4.60;99.90
2212;DHT22;48849;48.758;9.158;2023-02-07T02:30:52;4.60;99.90
2212;DHT22;48849;48.758;9.158;2023-02-07T02:33:32;4.60;99.90
2212;DHT22;48849;48.758;9.158;2023-02-07T02:36:09;4.50;99.90
2212;DHT22;48849;48.758;9.158;2023-02-07T02:38:42;4.50;99.90
2212;DHT22;48849;48.758;9.158;2023-02-07T02:41:14;4.50;99.90
2212;DHT22;48849;48.758;9.158;2023-02-07T02:43:45;4.50;99.90
2212;DHT22;48849;48.758;9.158;2023-02-07T02:46:16;4.50;99.90
2212;DHT22;48849;48.758;9.158;2023-02-07T02:48:45;4.50;99.90
2212;DHT22;48849;48.758;9.158;2023-02-07T02:51:11;4.50;99.90
2212;DHT22;48849;48.758;9.158;2023-02-07T02:53:38;4.50;99.90
2212;DHT22;48849;48.758;9.158;2023-02-07T02:56:48;4.40;99.90
2212;DHT22;48849;48.758;9.158;2023-02-07T02:59:45;4.40;99.90
2212;DHT22;48849;48.758;9.158;2023-02-07T03:02:21;4.40;99.90
2212;DHT22;48849;48.758;9.158;2023-02-07T03:05:11;4.30;99.90
2212;DHT22;48849;48.758;9.158;2023-02-07T03:07:46;4.30;99.90
2212;DHT22;48849;48.758;9.158;2023-02-07T03:10:21;4.30;99.90
2212;DHT22;48849;48.758;9.158;2023-02-07T03:12:56;4.20;99.90
2212;DHT22;48849;48.758;9.158;2023-02-07T03:15:30;4.20;99.90
2212;DHT22;48849;48.758;9.158;2023-02-07T03:18:02;4.20;99.90
2212;DHT22;48849;48.758;9.158;2023-02-07T03:20:34;4.20;99.90
2212;DHT22;48849;48.758;9.158;2023-02-07T03:23:03;4.20;99.90
2212;DHT22;48849;48.758;9.158;2023-02-07T03:25:32;4.10;99.90
2212;DHT22;48849;48.758;9.158;2023-02-07T03:27:59;4.10;99.90
2212;DHT22;48849;48.758;9.158;2023-02-07T03:30:29;4.10;99.90
2212;DHT22;48849;48.758;9.158;2023-02-07T03:33:00;4.10;99.90
2212;DHT22;48849;48.758;9.158;2023-02-07T03:35:40;4.10;99.90
2212;DHT22;48849;48.758;9.158;2023-02-07T03:38:08;4.10;99.90
2212;DHT22;48849;48.758;9.158;2023-02-07T03:40:39;4.00;99.90
2212;DHT22;48849;48.758;9.158;2023-02-07T03:43:09;4.00;99.90
2212;DHT22;48849;48.758;9.158;2023-02-07T03:45:37;4.00;99.90
2212;DHT22;48849;48.758;9.158;2023-02-07T03:48:04;4.00;99.90
2212;DHT22;48849;48.758;9.158;2023-02-07T03:50:30;4.00;99.90
2212;DHT22;48849;48.758;9.158;2023-02-07T03:52:58;4.00;99.90
2212;DHT22;48849;48.758;9.158;2023-02-07T03:55:25;4.00;99.90
2212;DHT22;48849;48.758;9.158;2023-02-07T03:57:53;4.00;99.90
2212;DHT22;48849;48.758;9.158;2023-02-07T04:00:19;4.00;99.90
2212;DHT22;48849;48.758;9.158;2023-02-07T04:02:46;4.00;99.90
2212;DHT22;48849;48.758;9.158;2023-02-07T04:05:13;4.00;99.90
2212;DHT22;48849;48.758;9.158;2023-02-07T04:07:39;4.00;99.90
2212;DHT22;48849;48.758;9.158;2023-02-07T04:10:09;3.90;99.90
2212;DHT22;48849;48.758;9.158;2023-02-07T04:12:36;3.90;99.90
2212;DHT22;48849;48.758;9.158;2023-02-07T04:15:05;3.90;99.90
2212;DHT22;48849;48.758;9.158;2023-02-07T04:17:32;3.90;99.90
2212;DHT22;48849;48.758;9.158;2023-02-07T04:19:58;3.90;99.90
2212;DHT22;48849;48.758;9.158;2023-02-07T04:22:26;3.90;99.90
2212;DHT22;48849;48.758;9.158;2023-02-07T04:24:52;3.90;99.90
2212;DHT22;48849;48.758;9.158;2023-02-07T04:27:20;3.90;99.90
2212;DHT22;48849;48.758;9.158;2023-02-07T04:29:47;3.90;99.90
2212;DHT22;48849;48.758;9.158;2023-02-07T04:32:14;3.90;99.90
2212;DHT22;48849;48.758;9.158;2023-02-07T04:34:40;3.90;99.90
2212;DHT22;48849;48.758;9.158;2023-02-07T04:37:08;3.90;99.90
2212;DHT22;48849;48.758;9.158;2023-02-07T04:39:35;3.90;99.90
2212;DHT22;48849;48.758;9.158;2023-02-07T04:42:02;3.90;99.90
2212;DHT22;48849;48.758;9.158;2023-02-07T04:44:30;3.90;99.90
2212;DHT22;48849;48.758;9.158;2023-02-07T04:46:56;3.90;99.90
2212;DHT22;48849;48.758;9.158;2023-02-07T04:49:23;3.90;99.90
2212;DHT22;48849;48.758;9.158;2023-02-07T04:51:50;3.90;99.90
2212;DHT22;48849;48.758;9.158;2023-02-07T04:54:17;3.90;99.90
2212;DHT22;48849;48.758;9.158;2023-02-07T04:56:43;3.90;99.90
2212;DHT22;48849;48.758;9.158;2023-02-07T04:59:10;3.80;99.90
2212;DHT22;48849;48.758;9.158;2023-02-07T05:01:38;3.80;99.90
2212;DHT22;48849;48.758;9.158;2023-02-07T05:04:05;3.80;99.90
2212;DHT22;48849;48.758;9.158;2023-02-07T05:06:31;3.80;99.90
2212;DHT22;48849;48.758;9.158;2023-02-07T05:08:58;3.80;99.90
2212;DHT22;48849;48.758;9.158;2023-02-07T05:11:25;3.80;99.90
2212;DHT22;48849;48.758;9.158;2023-02-07T05:13:51;3.80;99.90
2212;DHT22;48849;48.758;9.158;2023-02-07T05:16:18;3.80;99.90
2212;DHT22;48849;48.758;9.158;2023-02-07T05:18:46;3.80;99.90
2212;DHT22;48849;48.758;9.158;2023-02-07T05:21:13;3.80;99.90
2212;DHT22;48849;48.758;9.158;2023-02-07T05:23:39;3.80;99.90
2212;DHT22;48849;48.758;9.158;2023-02-07T05:26:06;3.80;99.90
2212;DHT22;48849;48.758;9.158;2023-02-07T05:28:32;3.80;99.90
2212;DHT22;48849;48.758;9.158;2023-02-07T05:30:59;3.80;99.90
2212;DHT22;48849;48.758;9.158;2023-02-07T05:33:26;3.70;99.90
2212;DHT22;48849;48.758;9.158;2023-02-07T05:35:53;3.70;99.90
2212;DHT22;48849;48.758;9.158;2023-02-07T05:38:20;3.70;99.90
2212;DHT22;48849;48.758;9.158;2023-02-07T05:40:47;3.70;99.90
2212;DHT22;48849;48.758;9.158;2023-02-07T05:43:14;3.70;99.90
2212;DHT22;48849;48.758;9.158;2023-02-07T05:45:41;3.70;99.90
2212;DHT22;48849;48.758;9.158;2023-02-07T05:48:10;3.60;99.90
2212;DHT22;48849;48.758;9.158;2023-02-07T05:50:37;3.60;99.90
2212;DHT22;48849;48.758;9.158;2023-02-07T05:53:06;3.60;99.90
2212;DHT22;48849;48.758;9.158;2023-02-07T05:55:33;3.60;99.90
2212;DHT22;48849;48.758;9.158;2023-02-07T05:58:00;3.60;99.90
2212;DHT22;48849;48.758;9.158;2023-02-07T06:00:26;3.70;99.90
2212;DHT22;48849;48.758;9.158;2023-02-07T06:02:53;3.60;99.90
2212;DHT22;48849;48.758;9.158;2023-02-07T06:05:20;3.60;99.90
2212;DHT22;48849;48.758;9.158;2023-02-07T06:07:47;3.60;99.90
2212;DHT22;48849;48.758;9.158;2023-02-07T06:10:17;3.60;99.90
2212;DHT22;48849;48.758;9.158;2023-02-07T06:12:43;3.60;99.90
2212;DHT22;48849;48.758;9.158;2023-02-07T06:15:10;3.50;99.90
2212;DHT22;48849;48.758;9.158;2023-02-07T06:17:37;3.50;99.90
2212;DHT22;48849;48.758;9.158;2023-02-07T06:20:04;3.50;99.90
2212;DHT22;48849;48.758;9.158;2023-02-07T06:22:31;3.50;99.90
2212;DHT22;48849;48.758;9.158;2023-02-07T06:24:57;3.50;99.90
2212;DHT22;48849;48.758;9.158;2023-02-07T06:27:25;3.50;99.90
2212;DHT22;48849;48.758;9.158;2023-02-07T06:29:53;3.50;99.90
2212;DHT22;48849;48.758;9.158;2023-02-07T06:32:20;3.40;99.90
2212;DHT22;48849;48.758;9.158;2023-02-07T06:34:46;3.40;99.90
2212;DHT22;48849;48.758;9.158;2023-02-07T06:37:13;3.40;99.90
2212;DHT22;48849;48.758;9.158;2023-02-07T06:39:40;3.40;99.90
2212;DHT22;48849;48.758;9.158;2023-02-07T06:42:06;3.30;99.90
2212;DHT22;48849;48.758;9.158;2023-02-07T06:44:34;3.30;99.90
2212;DHT22;48849;48.758;9.158;2023-02-07T06:47:01;3.30;99.90
2212;DHT22;48849;48.758;9.158;2023-02-07T06:49:28;3.30;99.90
2212;DHT22;48849;48.758;9.158;2023-02-07T06:51:55;3.20;99.90
2212;DHT22;48849;48.758;9.158;2023-02-07T06:54:22;3.20;99.90
2212;DHT22;48849;48.758;9.158;2023-02-07T06:56:48;3.20;99.90
2212;DHT22;48849;48.758;9.158;2023-02-07T06:59:15;3.20;99.90
2212;DHT22;48849;48.758;9.158;2023-02-07T07:01:43;3.20;99.90
2212;DHT22;48849;48.758;9.158;2023-02-07T07:04:10;3.10;99.90
2212;DHT22;48849;48.758;9.158;2023-02-07T07:06:37;3.10;99.90
2212;DHT22;48849;48.758;9.158;2023-02-07T07:09:04;3.10;99.90
2212;DHT22;48849;48.758;9.158;2023-02-07T07:11:31;3.10;99.90
2212;DHT22;48849;48.758;9.158;2023-02-07T07:13:58;3.10;99.90
2212;DHT22;48849;48.758;9.158;2023-02-07T07:16:27;3.10;99.90
2212;DHT22;48849;48.758;9.158;2023-02-07T07:18:55;3.10;99.90
2212;DHT22;48849;48.758;9.158;2023-02-07T07:21:21;3.20;99.90
2212;DHT22;48849;48.758;9.158;2023-02-07T07:23:48;3.20;99.90
2212;DHT22;48849;48.758;9.158;2023-02-07T07:26:15;3.20;99.90
2212;DHT22;48849;48.758;9.158;2023-02-07T07:28:41;3.30;99.90
2212;DHT22;48849;48.758;9.158;2023-02-07T07:31:08;3.30;99.90
2212;DHT22;48849;48.758;9.158;2023-02-07T07:33:35;3.30;99.90
2212;DHT22;48849;48.758;9.158;2023-02-07T07:36:04;3.30;99.90
2212;DHT22;48849;48.758;9.158;2023-02-07T07:38:31;3.30;99.90
2212;DHT22;48849;48.758;9.158;2023-02-07T07:40:58;3.30;99.90
2212;DHT22;48849;48.758;9.158;2023-02-07T07:43:25;3.30;99.90
2212;DHT22;48849;48.758;9.158;2023-02-07T07:45:53;3.30;99.90
2212;DHT22;48849;48.758;9.158;2023-02-07T07:48:20;3.30;99.90
2212;DHT22;48849;48.758;9.158;2023-02-07T07:50:48;3.30;99.90
2212;DHT22;48849;48.758;9.158;2023-02-07T07:53:17;3.30;99.90
2212;DHT22;48849;48.758;9.158;2023-02-07T07:55:48;3.30;99.90
2212;DHT22;48849;48.758;9.158;2023-02-07T07:58:14;3.30;99.90
2212;DHT22;48849;48.758;9.158;2023-02-07T08:00:41;3.30;99.90
2212;DHT22;48849;48.758;9.158;2023-02-07T08:03:08;3.90;99.90
2212;DHT22;48849;48.758;9.158;2023-02-07T08:05:35;3.30;99.90
2212;DHT22;48849;48.758;9.158;2023-02-07T08:08:02;3.30;99.90
2212;DHT22;48849;48.758;9.158;2023-02-07T08:10:30;3.30;99.90
2212;DHT22;48849;48.758;9.158;2023-02-07T08:12:57;3.30;99.90
2212;DHT22;48849;48.758;9.158;2023-02-07T08:15:23;3.30;99.90
2212;DHT22;48849;48.758;9.158;2023-02-07T08:17:50;3.30;99.90
2212;DHT22;48849;48.758;9.158;2023-02-07T08:20:17;3.30;99.90
2212;DHT22;48849;48.758;9.158;2023-02-07T08:22:44;3.30;99.90
2212;DHT22;48849;48.758;9.158;2023-02-07T08:25:10;3.40;99.90
2212;DHT22;48849;48.758;9.158;2023-02-07T08:27:38;3.40;99.90
2212;DHT22;48849;48.758;9.158;2023-02-07T08:30:08;3.40;99.90
2212;DHT22;48849;48.758;9.158;2023-02-07T08:32:35;3.40;99.90
2212;DHT22;48849;48.758;9.158;2023-02-07T08:35:01;3.40;99.90
2212;DHT22;48849;48.758;9.158;2023-02-07T08:37:28;3.40;99.90
2212;DHT22;48849;48.758;9.158;2023-02-07T08:39:55;3.40;99.90
2212;DHT22;48849;48.758;9.158;2023-02-07T08:42:23;3.40;99.90
2212;DHT22;48849;48.758;9.158;2023-02-07T08:44:51;3.40;99.90
2212;DHT22;48849;48.758;9.158;2023-02-07T08:47:18;3.50;99.90
2212;DHT22;48849;48.758;9.158;2023-02-07T08:49:44;3.50;99.90
2212;DHT22;48849;48.758;9.158;2023-02-07T08:52:11;3.50;99.90
2212;DHT22;48849;48.758;9.158;2023-02-07T08:54:38;3.50;99.90
2212;DHT22;48849;48.758;9.158;2023-02-07T08:57:05;3.50;99.90
2212;DHT22;48849;48.758;9.158;2023-02-07T08:59:32;3.60;99.90
2212;DHT22;48849;48.758;9.158;2023-02-07T09:02:00;3.60;99.90
2212;DHT22;48849;48.758;9.158;2023-02-07T09:04:26;3.60;99.90
2212;DHT22;48849;48.758;9.158;2023-02-07T09:06:53;3.60;99.90
2212;DHT22;48849;48.758;9.158;2023-02-07T09:09:20;3.70;99.90
2212;DHT22;48849;48.758;9.158;2023-02-07T09:11:47;3.70;99.90
2212;DHT22;48849;48.758;9.158;2023-02-07T09:14:13;3.70;99.90
2212;DHT22;48849;48.758;9.158;2023-02-07T09:16:40;3.80;99.90
2212;DHT22;48849;48.758;9.158;2023-02-07T09:19:08;3.80;99.90
2212;DHT22;48849;48.758;9.158;2023-02-07T09:21:35;3.80;99.90
2212;DHT22;48849;48.758;9.158;2023-02-07T09:24:02;3.80;99.90
2212;DHT22;48849;48.758;9.158;2023-02-07T09:26:29;3.80;99.90
2212;DHT22;48849;48.758;9.158;2023-02-07T09:28:58;3.80;99.90
2212;DHT22;48849;48.758;9.158;2023-02-07T09:31:25;3.80;99.90
2212;DHT22;48849;48.758;9.158;2023-02-07T09:33:52;3.80;99.90
2212;DHT22;48849;48.758;9.158;2023-02-07T09:36:21;3.80;99.90
2212;DHT22;48849;48.758;9.158;2023-02-07T09:38:49;3.90;99.90
2212;DHT22;48849;48.758;9.158;2023-02-07T09:41:22;3.90;99.90
2212;DHT22;48849;48.758;9.158;2023-02-07T09:43:58;3.90;99.90
2212;DHT22;48849;48.758;9.158;2023-02-07T09:46:32;4.00;99.90
2212;DHT22;48849;48.758;9.158;2023-02-07T09:49:04;4.00;99.90
2212;DHT22;48849;48.758;9.158;2023-02-07T09:51:33;4.00;99.90
2212;DHT22;48849;48.758;9.158;2023-02-07T09:54:03;4.00;99.90
2212;DHT22;48849;48.758;9.158;2023-02-07T09:56:33;4.00;99.90
2212;DHT22;48849;48.758;9.158;2023-02-07T09:59:03;4.10;99.90
2212;DHT22;48849;48.758;9.158;2023-02-07T10:01:33;4.10;99.90
2212;DHT22;48849;48.758;9.158;2023-02-07T10:04:12;4.20;99.90
2212;DHT22;48849;48.758;9.158;2023-02-07T10:06:44;4.20;99.90
2212;DHT22;48849;48.758;9.158;2023-02-07T10:09:15;4.20;99.90
2212;DHT22;48849;48.758;9.158;2023-02-07T10:11:46;4.20;99.90
2212;DHT22;48849;48.758;9.158;2023-02-07T10:14:30;4.20;99.90
2212;DHT22;48849;48.758;9.158;2023-02-07T10:17:15;4.30;99.90
2212;DHT22;48849;48.758;9.158;2023-02-07T10:19:53;4.30;99.90
2212;DHT22;48849;48.758;9.158;2023-02-07T10:22:31;4.30;99.90
2212;DHT22;48849;48.758;9.158;2023-02-07T10:25:16;4.40;99.90
2212;DHT22;48849;48.758;9.158;2023-02-07T10:27:51;4.40;99.90
2212;DHT22;48849;48.758;9.158;2023-02-07T10:30:23;4.40;99.90
2212;DHT22;48849;48.758;9.158;2023-02-07T10:32:53;4.40;99.90
2212;DHT22;48849;48.758;9.158;2023-02-07T10:35:21;4.50;99.90
2212;DHT22;48849;48.758;9.158;2023-02-07T10:37:54;4.60;99.90
2212;DHT22;48849;48.758;9.158;2023-02-07T10:40:23;4.70;99.90
2212;DHT22;48849;48.758;9.158;2023-02-07T10:43:09;4.70;99.90
2212;DHT22;48849;48.758;9.158;2023-02-07T10:45:36;4.70;99.90
2212;DHT22;48849;48.758;9.158;2023-02-07T10:48:09;4.80;99.90
2212;DHT22;48849;48.758;9.158;2023-02-07T10:50:38;4.80;99.90
2212;DHT22;48849;48.758;9.158;2023-02-07T10:53:06;4.80;99.90
2212;DHT22;48849;48.758;9.158;2023-02-07T10:55:36;4.80;99.90
2212;DHT22;48849;48.758;9.158;2023-02-07T10:58:05;4.80;99.90
2212;DHT22;48849;48.758;9.158;2023-02-07T11:00:32;4.80;99.90
2212;DHT22;48849;48.758;9.158;2023-02-07T11:03:03;4.80;99.90
2212;DHT22;48849;48.758;9.158;2023-02-07T11:05:39;4.90;99.90
2212;DHT22;48849;48.758;9.158;2023-02-07T11:08:19;4.90;99.90
2212;DHT22;48849;48.758;9.158;2023-02-07T11:10:48;5.00;99.90
2212;DHT22;48849;48.758;9.158;2023-02-07T11:13:18;5.00;99.90
2212;DHT22;48849;48.758;9.158;2023-02-07T11:15:49;5.10;99.90
2212;DHT22;48849;48.758;9.158;2023-02-07T11:18:27;5.10;99.90
2212;DHT22;48849;48.758;9.158;2023-02-07T11:20:54;5.10;99.90
2212;DHT22;48849;48.758;9.158;2023-02-07T11:23:23;5.20;99.90
2212;DHT22;48849;48.758;9.158;2023-02-07T11:25:54;5.20;99.90
2212;DHT22;48849;48.758;9.158;2023-02-07T11:28:25;5.20;99.90
2212;DHT22;48849;48.758;9.158;2023-02-07T11:30:56;5.00;99.90
2212;DHT22;48849;48.758;9.158;2023-02-07T11:33:25;5.30;99.90
2212;DHT22;48849;48.758;9.158;2023-02-07T11:36:05;5.30;99.90
2212;DHT22;48849;48.758;9.158;2023-02-07T11:38:38;5.40;99.90
2212;DHT22;48849;48.758;9.158;2023-02-07T11:41:15;5.40;99.90
2212;DHT22;48849;48.758;9.158;2023-02-07T11:43:52;5.50;99.90
2212;DHT22;48849;48.758;9.158;2023-02-07T11:46:21;5.60;99.90
2212;DHT22;48849;48.758;9.158;2023-02-07T11:48:51;5.70;99.90
2212;DHT22;48849;48.758;9.158;2023-02-07T11:51:19;5.70;99.90
2212;DHT22;48849;48.758;9.158;2023-02-07T11:53:49;5.80;99.90
2212;DHT22;48849;48.758;9.158;2023-02-07T11:56:22;5.80;99.90
2212;DHT22;48849;48.758;9.158;2023-02-07T11:58:51;5.90;99.90
2212;DHT22;48849;48.758;9.158;2023-02-07T12:01:23;5.90;99.90
2212;DHT22;48849;48.758;9.158;2023-02-07T12:03:54;6.00;99.90
2212;DHT22;48849;48.758;9.158;2023-02-07T12:06:30;6.00;99.90
2212;DHT22;48849;48.758;9.158;2023-02-07T12:09:00;6.00;99.90
2212;DHT22;48849;48.758;9.158;2023-02-07T12:11:34;6.00;99.90
2212;DHT22;48849;48.758;9.158;2023-02-07T12:14:07;6.00;99.90
2212;DHT22;48849;48.758;9.158;2023-02-07T12:16:39;6.00;99.90
2212;DHT22;48849;48.758;9.158;2023-02-07T12:19:11;6.00;99.90
2212;DHT22;48849;48.758;9.158;2023-02-07T12:21:46;6.00;99.90
2212;DHT22;48849;48.758;9.158;2023-02-07T12:24:22;6.00;99.90
2212;DHT22;48849;48.758;9.158;2023-02-07T12:26:54;6.00;99.90
2212;DHT22;48849;48.758;9.158;2023-02-07T12:29:34;6.00;99.90
2212;DHT22;48849;48.758;9.158;2023-02-07T12:32:10;6.00;99.90
2212;DHT22;48849;48.758;9.158;2023-02-07T12:34:44;5.90;99.90
2212;DHT22;48849;48.758;9.158;2023-02-07T12:37:20;5.90;99.90
2212;DHT22;48849;48.758;9.158;2023-02-07T12:39:56;5.90;99.90
2212;DHT22;48849;48.758;9.158;2023-02-07T12:42:31;5.90;99.90
2212;DHT22;48849;48.758;9.158;2023-02-07T12:45:02;5.90;99.90
2212;DHT22;48849;48.758;9.158;2023-02-07T12:47:49;5.90;99.90
2212;DHT22;48849;48.758;9.158;2023-02-07T12:50:26;6.00;99.90
2212;DHT22;48849;48.758;9.158;2023-02-07T12:53:08;5.90;99.90
2212;DHT22;48849;48.758;9.158;2023-02-07T12:55:47;5.90;99.90
2212;DHT22;48849;48.758;9.158;2023-02-07T12:58:26;5.90;99.90
2212;DHT22;48849;48.758;9.158;2023-02-07T13:00:58;6.00;99.90
2212;DHT22;48849;48.758;9.158;2023-02-07T13:06:23;5.90;99.90
2212;DHT22;48849;48.758;9.158;2023-02-07T13:09:00;5.90;99.90
2212;DHT22;48849;48.758;9.158;2023-02-07T13:11:35;6.00;99.90
2212;DHT22;48849;48.758;9.158;2023-02-07T13:14:15;6.00;99.90
2212;DHT22;48849;48.758;9.158;2023-02-07T13:16:48;6.00;99.90
2212;DHT22;48849;48.758;9.158;2023-02-07T13:19:21;6.00;99.90
2212;DHT22;48849;48.758;9.158;2023-02-07T13:21:53;6.00;99.90
2212;DHT22;48849;48.758;9.158;2023-02-07T13:24:25;6.00;99.90
2212;DHT22;48849;48.758;9.158;2023-02-07T13:26:57;6.00;99.90
2212;DHT22;48849;48.758;9.158;2023-02-07T13:29:26;6.00;99.90
2212;DHT22;48849;48.758;9.158;2023-02-07T13:31:57;6.00;99.90
2212;DHT22;48849;48.758;9.158;2023-02-07T13:34:28;6.00;99.90
2212;DHT22;48849;48.758;9.158;2023-02-07T13:36:57;6.10;99.90
2212;DHT22;48849;48.758;9.158;2023-02-07T13:39:37;6.10;99.90
2212;DHT22;48849;48.758;9.158;2023-02-07T13:42:18;6.10;99.90
2212;DHT22;48849;48.758;9.158;2023-02-07T13:44:52;6.10;99.90
2212;DHT22;48849;48.758;9.158;2023-02-07T13:47:42;6.10;99.90
2212;DHT22;48849;48.758;9.158;2023-02-07T13:50:17;6.10;99.90
2212;DHT22;48849;48.758;9.158;2023-02-07T13:52:48;6.10;99.90
2212;DHT22;48849;48.758;9.158;2023-02-07T13:55:24;6.10;99.90
2212;DHT22;48849;48.758;9.158;2023-02-07T13:57:54;6.10;99.90
2212;DHT22;48849;48.758;9.158;2023-02-07T14:01:07;6.10;99.90
2212;DHT22;48849;48.758;9.158;2023-02-07T14:03:35;6.10;99.90
2212;DHT22;48849;48.758;9.158;2023-02-07T14:06:21;6.10;99.90
2212;DHT22;48849;48.758;9.158;2023-02-07T14:08:57;6.10;99.90
2212;DHT22;48849;48.758;9.158;2023-02-07T14:11:32;6.00;99.90
2212;DHT22;48849;48.758;9.158;2023-02-07T14:14:13;6.00;99.90
2212;DHT22;48849;48.758;9.158;2023-02-07T14:16:48;6.00;99.90
2212;DHT22;48849;48.758;9.158;2023-02-07T14:19:15;5.90;99.90
2212;DHT22;48849;48.758;9.158;2023-02-07T14:22:13;6.00;99.90
2212;DHT22;48849;48.758;9.158;2023-02-07T14:24:47;6.00;99.90
2212;DHT22;48849;48.758;9.158;2023-02-07T14:27:28;6.00;99.90
2212;DHT22;48849;48.758;9.158;2023-02-07T14:30:27;5.90;99.90
2212;DHT22;48849;48.758;9.158;2023-02-07T14:33:11;5.90;99.90
2212;DHT22;48849;48.758;9.158;2023-02-07T14:35:46;5.90;99.90
2212;DHT22;48849;48.758;9.158;2023-02-07T14:38:31;5.90;99.90
2212;DHT22;48849;48.758;9.158;2023-02-07T14:41:03;5.90;99.90
2212;DHT22;48849;48.758;9.158;2023-02-07T14:46:25;5.90;99.90
2212;DHT22;48849;48.758;9.158;2023-02-07T14:48:58;5.90;99.90
2212;DHT22;48849;48.758;9.158;2023-02-07T14:51:31;5.90;99.90
2212;DHT22;48849;48.758;9.158;2023-02-07T14:54:06;5.90;99.90
2212;DHT22;48849;48.758;9.158;2023-02-07T14:56:43;5.90;99.90
2212;DHT22;48849;48.758;9.158;2023-02-07T14:59:16;5.90;99.90
2212;DHT22;48849;48.758;9.158;2023-02-07T15:01:45;5.90;99.90
2212;DHT22;48849;48.758;9.158;2023-02-07T15:04:12;5.90;99.90
2212;DHT22;48849;48.758;9.158;2023-02-07T15:06:41;5.90;99.90
2212;DHT22;48849;48.758;9.158;2023-02-07T15:09:22;5.90;99.90
2212;DHT22;48849;48.758;9.158;2023-02-07T15:11:49;5.90;99.90
2212;DHT22;48849;48.758;9.158;2023-02-07T15:14:23;5.90;99.90
2212;DHT22;48849;48.758;9.158;2023-02-07T15:16:54;5.90;99.90
2212;DHT22;48849;48.758;9.158;2023-02-07T15:19:24;5.90;99.90
2212;DHT22;48849;48.758;9.158;2023-02-07T15:21:52;5.90;99.90
2212;DHT22;48849;48.758;9.158;2023-02-07T15:24:25;6.00;99.90
2212;DHT22;48849;48.758;9.158;2023-02-07T15:26:54;6.00;99.90
2212;DHT22;48849;48.758;9.158;2023-02-07T15:29:23;6.00;99.90
2212;DHT22;48849;48.758;9.158;2023-02-07T15:31:49;6.10;99.90
2212;DHT22;48849;48.758;9.158;2023-02-07T15:34:20;6.00;99.90
2212;DHT22;48849;48.758;9.158;2023-02-07T15:36:48;6.00;99.90
2212;DHT22;48849;48.758;9.158;2023-02-07T15:39:17;6.00;99.90
2212;DHT22;48849;48.758;9.158;2023-02-07T15:41:45;6.00;99.90
2212;DHT22;48849;48.758;9.158;2023-02-07T15:44:19;6.00;99.90
2212;DHT22;48849;48.758;9.158;2023-02-07T15:46:48;6.00;99.90
2212;DHT22;48849;48.758;9.158;2023-02-07T15:49:31;6.10;99.90
2212;DHT22;48849;48.758;9.158;2023-02-07T15:52:06;6.00;99.90
2212;DHT22;48849;48.758;9.158;2023-02-07T15:54:38;6.00;99.90
2212;DHT22;48849;48.758;9.158;2023-02-07T15:57:10;6.00;99.90
2212;DHT22;48849;48.758;9.158;2023-02-07T15:59:40;5.90;99.90
2212;DHT22;48849;48.758;9.158;2023-02-07T16:02:20;5.90;99.90
2212;DHT22;48849;48.758;9.158;2023-02-07T16:04:49;5.90;99.90
2212;DHT22;48849;48.758;9.158;2023-02-07T16:07:16;5.90;99.90
2212;DHT22;48849;48.758;9.158;2023-02-07T16:09:44;5.80;99.90
2212;DHT22;48849;48.758;9.158;2023-02-07T16:12:32;5.80;99.90
2212;DHT22;48849;48.758;9.158;2023-02-07T16:15:24;5.80;99.90
2212;DHT22;48849;48.758;9.158;2023-02-07T16:17:52;5.80;99.90
2212;DHT22;48849;48.758;9.158;2023-02-07T16:20:20;5.80;99.90
2212;DHT22;48849;48.758;9.158;2023-02-07T16:22:48;5.80;99.90
2212;DHT22;48849;48.758;9.158;2023-02-07T16:25:17;5.70;99.90
2212;DHT22;48849;48.758;9.158;2023-02-07T16:27:46;5.60;99.90
2212;DHT22;48849;48.758;9.158;2023-02-07T16:30:15;5.60;99.90